Time;durP1;ratioP1;P1;durP2;ratioP2;P2;SDS_P1;SDS_P2;PMS_P1;PMS_P2;Temp;Humidity;BMP_temperature;BMP_pressure;BME280_temperature;BME280_humidity;BME280_pressure;Samples;Min_cycle;Max_cycle;Signal;HPM_P1;HPM_P2
2022/10/07 00:00:44;;;;;;;11.43;2.80;;;7.30;99.90;;;;;;7338978;32;20142;-60
2022/10/07 00:04:46;;;;;;;9.57;2.90;;;7.30;99.90;;;;;;7336575;32;20659;-60
2022/10/07 00:08:50;;;;;;;8.80;2.70;;;7.40;99.90;;;;;;7345476;32;20106;-60
2022/10/07 00:12:52;;;;;;;11.98;3.55;;;7.50;99.90;;;;;;7338806;32;20108;-60
2022/10/07 00:16:54;;;;;;;10.57;3.95;;;7.60;99.90;;;;;;7335767;32;20170;-60
2022/10/07 00:20:56;;;;;;;14.52;3.40;;;7.70;99.90;;;;;;7346251;32;20115;-59
2022/10/07 00:24:57;;;;;;;8.70;3.08;;;7.70;99.90;;;;;;7341567;32;20197;-59
2022/10/07 00:28:59;;;;;;;10.20;2.58;;;7.80;99.90;;;;;;7333004;32;20559;-60
2022/10/07 00:33:01;;;;;;;10.68;2.90;;;7.80;99.90;;;;;;7338115;32;20138;-59
2022/10/07 00:37:03;;;;;;;11.40;2.83;;;7.80;99.90;;;;;;7342825;32;20104;-60
2022/10/07 00:41:06;;;;;;;13.62;3.12;;;7.90;99.90;;;;;;7343108;32;20107;-59
2022/10/07 00:45:13;;;;;;;10.88;2.97;;;7.90;99.90;;;;;;7339766;32;20198;-60
2022/10/07 00:49:15;;;;;;;13.43;2.67;;;8.00;99.90;;;;;;7338408;32;20100;-60
2022/10/07 00:53:17;;;;;;;9.18;2.92;;;8.00;99.90;;;;;;7337347;32;20108;-59
2022/10/07 00:57:26;;;;;;;8.02;2.50;;;8.10;99.90;;;;;;7334637;32;20119;-59
2022/10/07 01:01:28;;;;;;;16.00;3.00;;;8.00;99.90;;;;;;7339876;32;20220;-59
2022/10/07 01:05:30;;;;;;;9.30;2.28;;;8.10;99.90;;;;;;7347934;32;20115;-60
2022/10/07 01:09:32;;;;;;;11.02;3.40;;;8.10;99.90;;;;;;7347645;32;20103;-60
2022/10/07 01:13:50;;;;;;;9.15;2.95;;;8.10;99.90;;;;;;7349051;32;20234;-59
2022/10/07 01:18:12;;;;;;;;;;;8.10;99.90;;;;;;7339535;32;20135;-60
2022/10/07 01:22:29;;;;;;;10.73;2.83;;;8.10;99.90;;;;;;7343304;32;20021;-60
2022/10/07 01:26:33;;;;;;;11.12;2.95;;;8.10;99.90;;;;;;7338406;32;20222;-62
2022/10/07 01:30:40;;;;;;;11.02;2.40;;;8.00;99.90;;;;;;7346870;32;20134;-60
2022/10/07 01:34:44;;;;;;;9.50;3.95;;;8.10;99.90;;;;;;7344618;32;20115;-60
2022/10/07 01:39:01;;;;;;;11.52;3.37;;;8.10;99.90;;;;;;7347965;32;20191;-61
2022/10/07 01:43:04;;;;;;;12.75;3.00;;;8.10;99.90;;;;;;7347441;32;20112;-59
2022/10/07 01:47:06;;;;;;;8.85;2.90;;;8.10;99.90;;;;;;7351281;32;20788;-60
2022/10/07 01:51:08;;;;;;;11.20;3.37;;;8.10;99.90;;;;;;7340060;32;20577;-61
2022/10/07 01:55:27;;;;;;;11.77;3.10;;;8.10;99.90;;;;;;7345815;32;20171;-60
2022/10/07 01:59:49;;;;;;;8.90;3.28;;;8.10;99.90;;;;;;7347234;32;20115;-61
2022/10/07 02:03:57;;;;;;;5.57;2.87;;;8.10;99.90;;;;;;7342368;32;20475;-60
2022/10/07 02:08:32;;;;;;;7.32;2.87;;;8.10;99.90;;;;;;7340818;32;20563;-60
2022/10/07 02:12:39;;;;;;;6.87;2.65;;;8.20;99.90;;;;;;7346547;32;20197;-60
2022/10/07 02:16:45;;;;;;;11.52;2.28;;;8.10;99.90;;;;;;7340401;32;20103;-60
2022/10/07 02:20:50;;;;;;;8.32;2.90;;;8.10;99.90;;;;;;7338095;32;20609;-60
2022/10/07 02:24:54;;;;;;;7.50;2.70;;;8.10;99.90;;;;;;7348921;32;20111;-60
2022/10/07 02:28:59;;;;;;;12.75;2.53;;;8.10;99.90;;;;;;7343654;32;20474;-60
2022/10/07 02:33:04;;;;;;;8.82;2.72;;;8.10;99.90;;;;;;7339135;32;20112;-60
2022/10/07 02:37:17;;;;;;;5.07;2.25;;;8.10;99.90;;;;;;7340775;32;20166;-60
2022/10/07 02:41:34;;;;;;;9.75;3.33;;;8.20;99.90;;;;;;7338219;32;20616;-62
2022/10/07 02:45:44;;;;;;;9.13;2.22;;;8.20;99.90;;;;;;7344245;32;20125;-60
2022/10/07 02:49:52;;;;;;;10.55;2.80;;;8.30;99.90;;;;;;7354139;32;20176;-61
2022/10/07 02:53:55;;;;;;;5.20;2.50;;;8.40;99.90;;;;;;7330098;32;20158;-61
2022/10/07 02:58:01;;;;;;;9.45;3.05;;;8.40;99.90;;;;;;7345745;32;20750;-62
2022/10/07 03:02:08;;;;;;;11.65;2.75;;;8.40;99.90;;;;;;7345861;32;20843;-61
2022/10/07 03:06:12;;;;;;;9.18;2.65;;;8.50;99.90;;;;;;7347636;32;20157;-60
2022/10/07 03:10:15;;;;;;;11.43;3.03;;;8.60;99.90;;;;;;7338923;32;20112;-59
2022/10/07 03:14:17;;;;;;;9.30;3.00;;;8.60;99.90;;;;;;7351695;32;20558;-61
2022/10/07 03:18:26;;;;;;;8.90;2.97;;;8.60;99.90;;;;;;7334854;32;20146;-61
2022/10/07 03:22:28;;;;;;;11.85;2.60;;;8.60;99.90;;;;;;7348102;32;20231;-60
2022/10/07 03:26:31;;;;;;;10.52;3.33;;;8.60;99.90;;;;;;7327377;32;20112;-60
2022/10/07 03:30:33;;;;;;;8.02;3.05;;;8.70;99.90;;;;;;7346354;32;20206;-60
2022/10/07 03:34:35;;;;;;;9.10;2.85;;;8.50;99.90;;;;;;7338878;32;20479;-60
2022/10/07 03:38:37;;;;;;;9.65;3.60;;;8.40;99.90;;;;;;7348953;32;20522;-60
2022/10/07 03:42:42;;;;;;;9.30;3.25;;;8.40;99.90;;;;;;7349442;32;20452;-62
2022/10/07 03:46:47;;;;;;;7.12;2.97;;;8.30;99.90;;;;;;7333281;32;20130;-60
2022/10/07 03:50:51;;;;;;;9.18;3.65;;;8.20;99.90;;;;;;7333304;32;20176;-61
2022/10/07 03:54:54;;;;;;;10.95;3.45;;;8.20;99.90;;;;;;7344709;32;20135;-60
2022/10/07 03:58:56;;;;;;;7.65;3.12;;;8.20;99.90;;;;;;7339327;32;20598;-60
2022/10/07 04:02:58;;;;;;;8.70;3.20;;;8.10;99.90;;;;;;7340708;32;20550;-61
2022/10/07 04:07:00;;;;;;;9.85;3.20;;;8.00;99.90;;;;;;7345306;32;20126;-60
2022/10/07 04:11:03;;;;;;;11.43;3.45;;;8.10;99.90;;;;;;7339426;32;20146;-60
2022/10/07 04:15:05;;;;;;;8.23;3.12;;;8.10;99.90;;;;;;7343400;32;20572;-60
2022/10/07 04:19:06;;;;;;;8.07;3.28;;;8.10;99.90;;;;;;7340730;32;20133;-59
2022/10/07 04:23:08;;;;;;;11.70;3.20;;;8.00;99.90;;;;;;7341312;32;20280;-61
2022/10/07 04:27:10;;;;;;;9.82;3.50;;;8.00;99.90;;;;;;7340336;32;20226;-60
2022/10/07 04:31:32;;;;;;;8.98;3.28;;;7.90;99.90;;;;;;7343887;32;20115;-60
2022/10/07 04:35:37;;;;;;;8.65;3.62;;;7.90;99.90;;;;;;7333441;32;20203;-59
2022/10/07 04:39:39;;;;;;;7.68;3.30;;;7.90;99.90;;;;;;7341491;32;20265;-61
2022/10/07 04:44:01;;;;;;;11.00;3.60;;;7.90;99.90;;;;;;7346272;32;20145;-60
2022/10/07 04:48:04;;;;;;;7.93;3.55;;;7.90;99.90;;;;;;7343472;32;20116;-60
2022/10/07 04:52:06;;;;;;;13.88;3.95;;;8.00;99.90;;;;;;7345976;32;20116;-60
2022/10/07 04:56:09;;;;;;;8.77;3.08;;;7.80;99.90;;;;;;7337516;32;20099;-62
2022/10/07 05:00:12;;;;;;;11.65;4.03;;;7.90;99.90;;;;;;7342586;32;20131;-60
2022/10/07 05:04:13;;;;;;;8.68;3.78;;;7.90;99.90;;;;;;7341110;32;20172;-61
2022/10/07 05:08:17;;;;;;;12.77;4.35;;;7.90;99.90;;;;;;7332854;32;20104;-60
2022/10/07 05:12:19;;;;;;;14.60;4.47;;;7.90;99.90;;;;;;7344419;32;20221;-61
2022/10/07 05:16:21;;;;;;;10.88;4.00;;;7.80;99.90;;;;;;7348446;32;20170;-61
2022/10/07 05:20:23;;;;;;;8.82;3.70;;;7.80;99.90;;;;;;7345991;32;20495;-60
2022/10/07 05:24:25;;;;;;;14.73;5.97;;;7.80;99.90;;;;;;7348166;32;20461;-62
2022/10/07 05:28:27;;;;;;;11.50;4.00;;;7.80;99.90;;;;;;7339020;32;20110;-61
2022/10/07 05:32:29;;;;;;;11.55;5.03;;;7.70;99.90;;;;;;7345618;32;20221;-61
2022/10/07 05:36:30;;;;;;;11.18;4.18;;;7.80;99.90;;;;;;7336122;32;20156;-61
2022/10/07 05:40:32;;;;;;;16.02;4.90;;;7.80;99.90;;;;;;7343804;32;20118;-60
2022/10/07 05:44:36;;;;;;;13.02;4.10;;;7.70;99.90;;;;;;7332530;32;20206;-62
2022/10/07 05:48:38;;;;;;;13.55;4.97;;;7.70;99.90;;;;;;7331586;32;20114;-62
2022/10/07 05:52:41;;;;;;;9.13;4.37;;;7.70;99.90;;;;;;7344929;32;20210;-62
2022/10/07 05:56:43;;;;;;;13.98;4.20;;;7.70;99.90;;;;;;7348557;32;20112;-63
2022/10/07 06:00:57;;;;;;;12.75;4.28;;;7.70;99.90;;;;;;7344911;32;20111;-62
2022/10/07 06:05:06;;;;;;;12.40;3.90;;;7.80;99.90;;;;;;7360908;32;20123;-61
2022/10/07 06:13:29;;;;;;;12.15;3.75;;;7.90;99.90;;;;;;7339770;32;20198;-62
2022/10/07 06:17:31;;;;;;;10.70;3.62;;;8.00;99.90;;;;;;7348232;32;20193;-61
2022/10/07 06:21:33;;;;;;;8.88;3.85;;;8.00;99.90;;;;;;7341382;32;20194;-64
2022/10/07 06:25:34;;;;;;;7.85;3.20;;;8.00;99.90;;;;;;7346549;32;20116;-62
2022/10/07 06:29:36;;;;;;;9.75;3.28;;;8.00;99.90;;;;;;7337468;32;21710;-62
2022/10/07 06:33:38;;;;;;;9.20;4.00;;;8.10;99.90;;;;;;7342051;32;20100;-63
2022/10/07 06:37:40;;;;;;;9.23;3.78;;;8.10;99.90;;;;;;7343683;32;20157;-61
2022/10/07 06:41:41;;;;;;;12.37;3.37;;;8.20;99.90;;;;;;7347384;32;20137;-62
2022/10/07 06:45:43;;;;;;;11.27;3.72;;;8.20;99.90;;;;;;7348040;32;20130;-61
2022/10/07 06:49:45;;;;;;;13.88;3.50;;;8.30;99.90;;;;;;7338524;32;20553;-62
2022/10/07 06:53:51;;;;;;;15.27;3.72;;;8.40;99.90;;;;;;7335453;32;20124;-62
2022/10/07 06:57:53;;;;;;;13.27;3.75;;;8.40;99.90;;;;;;7338509;32;20424;-63
2022/10/07 07:01:55;;;;;;;7.50;2.58;;;8.40;99.90;;;;;;7348971;32;20138;-62
2022/10/07 07:05:57;;;;;;;10.32;3.80;;;8.50;99.90;;;;;;7340456;32;20652;-62
2022/10/07 07:09:58;;;;;;;10.95;3.42;;;8.60;99.90;;;;;;7341685;32;20186;-62
2022/10/07 07:14:02;;;;;;;7.65;3.00;;;8.60;99.90;;;;;;7339759;32;20141;-61
2022/10/07 07:18:06;;;;;;;11.18;2.50;;;8.70;99.90;;;;;;7343374;32;20136;-61
2022/10/07 07:22:08;;;;;;;12.63;3.00;;;8.80;99.90;;;;;;7354879;32;20190;-62
2022/10/07 07:26:09;;;;;;;14.10;3.10;;;8.90;99.90;;;;;;7347756;32;20709;-61
2022/10/07 07:30:12;;;;;;;9.82;3.30;;;8.90;99.90;;;;;;7341671;32;20130;-63
2022/10/07 07:34:14;;;;;;;9.13;2.60;;;9.00;99.90;;;;;;7343254;32;20709;-62
2022/10/07 07:38:16;;;;;;;11.25;3.28;;;9.00;99.90;;;;;;7339390;32;20129;-62
2022/10/07 07:42:18;;;;;;;13.77;3.75;;;9.20;99.90;;;;;;7338111;32;20107;-62
2022/10/07 07:46:22;;;;;;;14.40;3.30;;;9.30;99.90;;;;;;7342887;32;20226;-63
2022/10/07 07:50:26;;;;;;;8.68;3.25;;;9.30;99.90;;;;;;7340913;32;20119;-62
2022/10/07 07:54:27;;;;;;;10.02;2.95;;;9.40;99.90;;;;;;7345327;32;20908;-62
2022/10/07 07:58:29;;;;;;;13.52;3.67;;;9.50;99.90;;;;;;7342246;32;20206;-62
2022/10/07 08:02:31;;;;;;;12.25;2.83;;;9.60;99.90;;;;;;7340665;32;20183;-62
2022/10/07 08:06:33;;;;;;;13.25;3.37;;;9.70;99.90;;;;;;7346395;32;20837;-62
2022/10/07 08:10:35;;;;;;;10.18;3.10;;;9.80;99.90;;;;;;7334848;32;20111;-63
2022/10/07 08:14:37;;;;;;;10.73;2.58;;;9.90;99.90;;;;;;7344270;32;20669;-63
2022/10/07 08:18:41;;;;;;;16.25;2.80;;;10.10;99.90;;;;;;7346037;32;20225;-63
2022/10/07 08:22:44;;;;;;;6.85;2.60;;;10.10;99.90;;;;;;7346498;32;20112;-63
2022/10/07 08:26:46;;;;;;;12.18;3.10;;;10.30;99.90;;;;;;7338172;32;20165;-65
2022/10/07 08:30:49;;;;;;;10.60;2.50;;;10.30;99.90;;;;;;7346605;32;20137;-65
2022/10/07 08:34:51;;;;;;;12.43;2.30;;;10.40;99.90;;;;;;7345142;32;20210;-63
2022/10/07 08:38:53;;;;;;;10.98;2.67;;;10.70;99.90;;;;;;7343790;32;20115;-64
2022/10/07 08:42:55;;;;;;;12.95;2.47;;;10.90;99.90;;;;;;7344152;32;20107;-65
2022/10/07 08:47:05;;;;;;;15.73;2.40;;;11.40;99.90;;;;;;7339246;32;20167;-60
2022/10/07 08:51:19;;;;;;;10.90;2.70;;;11.60;99.90;;;;;;7342367;32;20241;-62
2022/10/07 08:55:40;;;;;;;12.37;2.60;;;11.70;99.90;;;;;;7336205;32;20116;-63
2022/10/07 08:59:48;;;;;;;11.07;2.60;;;11.80;99.90;;;;;;7344848;32;20598;-64
2022/10/07 09:04:07;;;;;;;11.52;2.95;;;11.90;99.90;;;;;;7342884;32;20244;-62
2022/10/07 09:08:20;;;;;;;12.30;2.90;;;12.00;99.90;;;;;;7341828;32;20141;-64
2022/10/07 09:12:37;;;;;;;10.82;2.87;;;12.30;99.90;;;;;;7347844;32;20836;-62
2022/10/07 09:16:42;;;;;;;14.60;2.60;;;12.60;99.90;;;;;;7340507;32;20110;-63
2022/10/07 09:20:52;;;;;;;8.27;2.37;;;13.00;99.90;;;;;;7341708;32;20115;-63
2022/10/07 09:25:01;;;;;;;16.20;3.10;;;13.40;99.90;;;;;;7344028;32;20215;-62
2022/10/07 09:29:08;;;;;;;8.80;2.45;;;13.60;99.90;;;;;;7344923;32;20108;-63
2022/10/07 09:33:17;;;;;;;12.95;3.05;;;14.30;99.90;;;;;;7348589;32;20649;-64
2022/10/07 09:37:19;;;;;;;11.12;2.28;;;15.90;99.90;;;;;;7344228;32;20115;-65
2022/10/07 09:41:31;;;;;;;9.32;2.45;;;16.90;99.90;;;;;;7350646;32;20104;-66
2022/10/07 09:45:33;;;;;;;8.63;2.53;;;17.80;99.90;;;;;;7341226;32;20224;-65
2022/10/07 09:49:41;;;;;;;12.32;2.47;;;18.90;99.90;;;;;;7345251;32;20123;-65
2022/10/07 09:53:58;;;;;;;13.62;2.40;;;19.20;99.90;;;;;;7348608;32;20527;-66
2022/10/07 09:58:01;;;;;;;15.95;2.50;;;19.60;99.90;;;;;;7346150;32;20206;-65
2022/10/07 10:02:12;;;;;;;10.32;2.65;;;18.90;99.90;;;;;;7343802;32;20099;-64
2022/10/07 10:06:20;;;;;;;12.48;2.17;;;18.50;99.90;;;;;;7348568;32;20130;-65
2022/10/07 10:10:29;;;;;;;12.00;2.42;;;18.40;99.90;;;;;;7343957;32;20573;-65
2022/10/07 10:14:53;;;;;;;13.62;2.55;;;17.90;99.90;;;;;;7345648;32;20512;-64
2022/10/07 10:19:01;;;;;;;8.68;2.40;;;18.00;99.90;;;;;;7344674;32;20181;-66
2022/10/07 10:23:32;;;;;;;11.20;2.45;;;17.40;99.90;;;;;;7348631;32;20187;-66
2022/10/07 10:27:45;;;;;;;13.52;2.50;;;17.10;99.90;;;;;;7341678;32;20259;-65
2022/10/07 10:31:55;;;;;;;13.82;2.40;;;16.60;99.90;;;;;;7350859;32;20214;-65
2022/10/07 10:36:19;;;;;;;10.82;2.15;;;16.30;99.90;;;;;;7343604;32;20146;-65
2022/10/07 10:40:38;;;;;;;8.23;2.03;;;16.30;99.90;;;;;;7349604;32;20124;-65
2022/10/07 10:45:06;;;;;;;14.00;2.47;;;16.00;99.90;;;;;;7340512;32;20236;-64
2022/10/07 10:49:09;;;;;;;;;;;16.20;99.90;;;;;;7341595;32;20137;-66
2022/10/07 10:53:28;;;;;;;10.65;2.28;;;16.10;99.90;;;;;;7343301;32;20448;-65
2022/10/07 10:57:44;;;;;;;10.40;2.75;;;16.00;99.90;;;;;;7353192;32;20187;-65
2022/10/07 11:01:54;;;;;;;12.30;2.47;;;16.00;99.90;;;;;;7342339;32;20537;-66
2022/10/07 11:05:56;;;;;;;11.12;1.92;;;15.90;99.90;;;;;;7344773;32;20125;-65
2022/10/07 11:10:15;;;;;;;16.23;2.70;;;16.00;99.90;;;;;;7357814;32;20229;-67
2022/10/07 11:14:21;;;;;;;9.85;2.22;;;15.90;99.90;;;;;;7348079;32;20137;-65
2022/10/07 11:18:47;;;;;;;13.62;2.62;;;16.10;99.90;;;;;;7345949;32;20111;-65
2022/10/07 11:22:55;;;;;;;13.50;2.28;;;16.20;99.90;;;;;;7339429;32;20225;-65
2022/10/07 11:27:09;;;;;;;15.50;2.85;;;16.20;99.90;;;;;;7340831;32;20221;-65
2022/10/07 11:31:23;;;;;;;15.13;2.95;;;16.30;99.90;;;;;;7343825;32;20131;-64
2022/10/07 11:35:34;;;;;;;15.98;2.65;;;16.50;99.90;;;;;;7340011;32;20135;-64
2022/10/07 11:39:37;;;;;;;14.55;2.50;;;16.60;99.90;;;;;;7340806;32;20107;-65
2022/10/07 11:43:45;;;;;;;10.98;2.03;;;16.70;99.90;;;;;;7344129;32;20111;-64
2022/10/07 11:47:53;;;;;;;15.27;2.40;;;16.80;99.90;;;;;;7339925;32;20129;-64
2022/10/07 11:52:25;;;;;;;15.60;2.10;;;16.90;99.90;;;;;;7343187;32;20150;-65
2022/10/07 11:56:43;;;;;;;11.85;1.80;;;17.00;99.90;;;;;;7341917;32;20107;-64
2022/10/07 12:00:45;;;;;;;13.45;2.25;;;17.40;99.90;;;;;;7344836;32;20110;-64
2022/10/07 12:04:46;;;;;;;12.40;2.12;;;17.70;99.90;;;;;;7347132;32;20111;-64
2022/10/07 12:08:48;;;;;;;10.65;1.90;;;17.90;99.90;;;;;;7344940;32;20138;-66
2022/10/07 12:13:12;;;;;;;10.60;1.90;;;18.00;99.90;;;;;;7340831;32;20149;-63
2022/10/07 12:17:21;;;;;;;16.10;1.60;;;18.00;99.90;;;;;;7342565;32;20138;-63
2022/10/07 12:21:22;;;;;;;11.15;1.75;;;17.80;99.90;;;;;;7340369;32;20189;-65
2022/10/07 12:25:31;;;;;;;11.43;2.03;;;17.80;99.90;;;;;;7334796;32;20444;-61
2022/10/07 12:29:47;;;;;;;10.73;1.55;;;17.80;99.90;;;;;;7343822;32;20145;-60
2022/10/07 12:34:02;;;;;;;9.93;1.73;;;17.80;99.90;;;;;;7339450;32;20286;-60
2022/10/07 12:38:25;;;;;;;6.85;1.70;;;17.90;99.90;;;;;;7344043;32;20112;-60
2022/10/07 12:42:28;;;;;;;10.85;1.87;;;18.00;99.90;;;;;;7346311;32;20115;-60
2022/10/07 12:46:49;;;;;;;8.30;1.87;;;18.10;99.90;;;;;;7340415;32;20198;-61
2022/10/07 12:50:55;;;;;;;11.77;1.90;;;18.10;99.90;;;;;;7343465;32;20123;-59
2022/10/07 12:55:09;;;;;;;11.60;2.17;;;18.10;99.90;;;;;;7347193;32;20542;-63
2022/10/07 12:59:49;;;;;;;13.10;1.80;;;18.00;99.90;;;;;;7337169;32;20130;-65
2022/10/07 13:04:09;;;;;;;13.82;1.87;;;18.20;99.90;;;;;;7345184;32;20613;-63
2022/10/07 13:08:45;;;;;;;9.82;2.03;;;18.10;99.90;;;;;;7347987;32;20257;-63
2022/10/07 13:12:50;;;;;;;11.60;1.98;;;18.10;99.90;;;;;;7349464;32;20108;-64
2022/10/07 13:17:00;;;;;;;10.68;1.85;;;18.40;99.90;;;;;;7348928;32;20119;-65
2022/10/07 13:21:11;;;;;;;9.90;1.77;;;18.70;99.90;;;;;;7344815;32;20501;-67
2022/10/07 13:25:16;;;;;;;11.77;1.77;;;18.70;99.90;;;;;;7348835;32;20738;-65
2022/10/07 13:29:32;;;;;;;11.02;2.00;;;18.70;99.90;;;;;;7346624;32;20119;-64
2022/10/07 13:33:34;;;;;;;12.60;2.10;;;18.90;99.90;;;;;;7348311;32;20267;-65
2022/10/07 13:37:37;;;;;;;12.37;2.15;;;19.10;99.90;;;;;;7349144;32;20135;-64
2022/10/07 13:41:48;;;;;;;13.25;2.30;;;19.00;99.90;;;;;;7345736;32;20123;-67
2022/10/07 13:45:50;;;;;;;14.85;1.83;;;18.80;99.90;;;;;;7348617;32;20296;-65
2022/10/07 13:49:53;;;;;;;13.07;2.03;;;18.80;99.90;;;;;;7345360;32;20932;-64
2022/10/07 13:53:59;;;;;;;12.55;2.15;;;18.60;99.90;;;;;;7345152;32;20906;-65
2022/10/07 13:58:03;;;;;;;8.63;1.93;;;18.60;99.90;;;;;;7342346;32;20696;-65
2022/10/07 14:02:11;;;;;;;12.80;2.47;;;18.40;99.90;;;;;;7347296;32;20099;-63
2022/10/07 14:06:53;;;;;;;12.10;2.05;;;18.60;99.90;;;;;;7349619;32;20119;-64
2022/10/07 14:11:13;;;;;;;16.12;1.73;;;18.90;99.90;;;;;;7346582;32;20115;-65
2022/10/07 14:15:24;;;;;;;10.63;1.80;;;19.20;99.90;;;;;;7345473;32;20206;-64
2022/10/07 14:19:31;;;;;;;8.50;1.70;;;19.10;99.90;;;;;;7343903;32;20137;-64
2022/10/07 14:23:36;;;;;;;12.70;1.85;;;19.00;99.90;;;;;;7343053;32;20161;-59
2022/10/07 14:27:39;;;;;;;9.27;1.92;;;18.90;99.90;;;;;;7337289;32;20103;-60
2022/10/07 14:36:27;;;;;;;8.25;1.58;;;18.60;99.90;;;;;;7344220;32;20202;-59
2022/10/07 14:40:29;;;;;;;12.02;2.05;;;18.40;99.90;;;;;;7351322;32;20115;-59
2022/10/07 14:44:31;;;;;;;11.95;1.70;;;18.20;99.90;;;;;;7346611;32;20206;-60
2022/10/07 14:48:32;;;;;;;11.18;2.10;;;18.10;99.90;;;;;;7348702;32;20221;-60
2022/10/07 14:52:44;;;;;;;8.93;1.77;;;18.00;99.90;;;;;;7346476;32;20233;-63
2022/10/07 14:56:46;;;;;;;14.43;1.95;;;18.00;99.90;;;;;;7352976;32;20131;-64
2022/10/07 15:00:48;;;;;;;8.45;1.73;;;17.80;99.90;;;;;;7344083;32;20129;-65
2022/10/07 15:04:50;;;;;;;13.70;1.80;;;17.70;99.90;;;;;;7337558;32;20114;-66
2022/10/07 15:08:52;;;;;;;16.00;2.65;;;17.70;99.90;;;;;;7351342;32;21020;-66
2022/10/07 15:12:54;;;;;;;9.48;1.90;;;17.70;99.90;;;;;;7335272;32;20115;-65
2022/10/07 15:16:56;;;;;;;15.98;1.80;;;17.60;99.90;;;;;;7341626;32;20676;-65
2022/10/07 15:20:58;;;;;;;10.02;1.70;;;17.50;99.90;;;;;;7346610;32;20107;-67
2022/10/07 15:25:02;;;;;;;13.38;2.40;;;17.40;99.90;;;;;;7350013;32;20726;-65
2022/10/07 15:29:06;;;;;;;8.52;1.70;;;17.40;99.90;;;;;;7343786;32;20112;-64
2022/10/07 15:33:11;;;;;;;11.57;2.00;;;17.30;99.90;;;;;;7353301;32;20115;-64
2022/10/07 15:37:13;;;;;;;6.82;1.90;;;17.10;99.90;;;;;;7345404;32;20107;-64
2022/10/07 15:41:39;;;;;;;8.48;1.90;;;17.20;99.90;;;;;;7343489;32;20182;-65
2022/10/07 15:45:44;;;;;;;11.10;2.10;;;17.00;99.90;;;;;;7344440;32;20202;-63
2022/10/07 15:49:46;;;;;;;11.23;1.92;;;16.80;99.90;;;;;;7351761;32;20233;-63
2022/10/07 15:53:47;;;;;;;8.40;1.80;;;16.60;99.90;;;;;;7341548;32;20146;-64
2022/10/07 15:57:49;;;;;;;13.57;2.42;;;16.40;99.90;;;;;;7350969;32;20186;-64
2022/10/07 16:01:51;;;;;;;11.80;1.80;;;16.40;99.90;;;;;;7345940;32;20195;-65
2022/10/07 16:05:58;;;;;;;8.93;1.62;;;16.20;99.90;;;;;;7341492;32;20138;-63
2022/10/07 16:10:00;;;;;;;6.03;1.40;;;16.10;99.90;;;;;;7334766;32;20117;-63
2022/10/07 16:14:02;;;;;;;10.93;2.05;;;16.00;99.90;;;;;;7342697;32;20618;-64
2022/10/07 16:18:05;;;;;;;10.80;1.92;;;15.80;99.90;;;;;;7342452;32;20278;-64
2022/10/07 16:22:07;;;;;;;10.55;1.95;;;15.70;99.90;;;;;;7340719;32;20111;-63
2022/10/07 16:26:18;;;;;;;9.90;2.12;;;15.60;99.90;;;;;;7346106;32;20194;-63
2022/10/07 16:34:42;;;;;;;10.52;2.45;;;15.40;99.90;;;;;;7345182;32;20103;-65
2022/10/07 16:38:45;;;;;;;13.10;6.65;;;15.20;99.90;;;;;;7339142;32;20103;-65
2022/10/07 16:42:47;;;;;;;12.20;3.30;;;14.90;99.90;;;;;;7345156;32;20632;-68
2022/10/07 16:46:49;;;;;;;13.55;3.08;;;14.60;99.90;;;;;;7341119;32;20114;-66
2022/10/07 16:50:50;;;;;;;10.05;1.98;;;14.40;99.90;;;;;;7343204;32;20115;-65
2022/10/07 16:54:52;;;;;;;12.45;2.25;;;14.00;99.90;;;;;;7343871;32;20162;-66
2022/10/07 16:58:56;;;;;;;11.60;2.50;;;13.70;99.90;;;;;;7340043;32;20527;-65
2022/10/07 17:02:57;;;;;;;8.23;2.42;;;13.30;99.90;;;;;;7343196;32;20119;-66
2022/10/07 17:06:59;;;;;;;25.20;12.75;;;13.00;99.90;;;;;;7347305;32;20175;-67
2022/10/07 17:11:01;;;;;;;14.98;5.82;;;12.80;99.90;;;;;;7334931;32;20112;-63
2022/10/07 17:15:03;;;;;;;13.35;2.53;;;12.60;99.90;;;;;;7344575;32;20182;-63
2022/10/07 17:19:05;;;;;;;7.43;2.03;;;12.30;99.90;;;;;;7343171;32;20194;-63
2022/10/07 17:23:07;;;;;;;12.37;2.45;;;12.10;99.90;;;;;;7341806;32;20111;-63
2022/10/07 17:27:09;;;;;;;11.77;2.28;;;11.90;99.90;;;;;;7342609;32;20095;-62
2022/10/07 17:31:12;;;;;;;11.65;2.55;;;11.70;99.90;;;;;;7342414;32;20146;-62
2022/10/07 17:35:14;;;;;;;16.15;2.80;;;11.60;99.90;;;;;;7350125;32;21510;-62
2022/10/07 17:39:17;;;;;;;15.05;2.45;;;11.40;99.90;;;;;;7344139;32;20130;-63
2022/10/07 17:43:19;;;;;;;10.90;2.58;;;11.30;99.90;;;;;;7336602;32;20713;-63
2022/10/07 17:47:21;;;;;;;9.60;2.12;;;11.10;99.90;;;;;;7344749;32;20554;-63
2022/10/07 17:51:26;;;;;;;12.85;2.30;;;11.00;99.90;;;;;;7345686;32;20718;-63
2022/10/07 17:55:28;;;;;;;10.18;2.17;;;10.80;99.90;;;;;;7343165;32;20261;-63
2022/10/07 17:59:30;;;;;;;11.52;2.12;;;10.70;99.90;;;;;;7344414;32;20540;-64
2022/10/07 18:03:32;;;;;;;10.55;2.20;;;10.60;99.90;;;;;;7348057;32;20269;-62
2022/10/07 18:07:34;;;;;;;13.02;2.30;;;10.50;99.90;;;;;;7342211;32;20289;-60
2022/10/07 18:16:00;;;;;;;8.45;2.17;;;10.20;99.90;;;;;;7343447;32;20134;-62
2022/10/07 18:20:05;;;;;;;14.25;2.25;;;10.20;99.90;;;;;;7350492;32;20797;-62
2022/10/07 18:24:09;;;;;;;19.93;3.17;;;10.10;99.90;;;;;;7347869;32;20417;-64
2022/10/07 18:28:11;;;;;;;16.12;3.00;;;10.00;99.90;;;;;;7353112;32;20133;-62
2022/10/07 18:32:13;;;;;;;14.35;3.22;;;10.00;99.90;;;;;;7345984;32;20135;-60
2022/10/07 18:36:18;;;;;;;12.40;3.78;;;9.90;99.90;;;;;;7344414;32;20172;-61
2022/10/07 18:40:19;;;;;;;15.07;3.58;;;9.80;99.90;;;;;;7347307;32;20541;-62
2022/10/07 18:44:21;;;;;;;11.75;3.95;;;9.70;99.90;;;;;;7342450;32;20115;-61
2022/10/07 18:48:23;;;;;;;12.00;4.53;;;9.70;99.90;;;;;;7347700;32;20243;-62
2022/10/07 18:52:25;;;;;;;15.23;3.85;;;9.60;99.90;;;;;;7344562;32;20125;-63
2022/10/07 18:56:26;;;;;;;26.33;8.52;;;9.50;99.90;;;;;;7338777;32;20178;-66
2022/10/07 19:00:28;;;;;;;35.65;12.68;;;9.40;99.90;;;;;;7341278;32;20169;-63
2022/10/07 19:04:30;;;;;;;29.17;11.80;;;9.30;99.90;;;;;;7338448;32;20174;-62
2022/10/07 19:08:33;;;;;;;17.30;5.70;;;9.20;99.90;;;;;;7346004;32;20202;-62
2022/10/07 19:16:55;;;;;;;12.80;4.97;;;9.10;99.90;;;;;;7344705;32;20119;-64
2022/10/07 19:20:57;;;;;;;21.90;6.20;;;9.00;99.90;;;;;;7340600;32;20641;-63
2022/10/07 19:29:19;;;;;;;11.18;4.07;;;8.90;99.90;;;;;;7339792;32;20124;-65
2022/10/07 19:33:22;;;;;;;13.27;4.68;;;8.90;99.90;;;;;;7347120;32;20182;-62
2022/10/07 19:37:24;;;;;;;9.30;3.00;;;8.80;99.90;;;;;;7338625;32;20234;-61
2022/10/07 19:41:29;;;;;;;9.45;2.65;;;8.70;99.90;;;;;;7346307;32;20567;-68
2022/10/07 19:45:34;;;;;;;17.15;2.70;;;8.70;99.90;;;;;;7334458;32;20126;-66
2022/10/07 19:49:37;;;;;;;11.93;2.67;;;8.60;99.90;;;;;;7341775;32;20540;-64
2022/10/07 19:53:40;;;;;;;7.65;2.42;;;8.60;99.90;;;;;;7350553;32;20110;-66
2022/10/07 19:57:48;;;;;;;9.60;2.10;;;8.50;99.90;;;;;;7341965;32;20131;-64
2022/10/07 20:01:50;;;;;;;12.75;2.85;;;8.50;99.90;;;;;;7334234;32;20166;-65
2022/10/07 20:05:52;;;;;;;11.10;2.58;;;8.50;99.90;;;;;;7346348;32;20543;-64
2022/10/07 20:09:54;;;;;;;11.52;2.60;;;8.40;99.90;;;;;;7347729;32;20703;-63
2022/10/07 20:13:56;;;;;;;9.90;2.50;;;8.40;99.90;;;;;;7341843;32;20507;-63
2022/10/07 20:17:57;;;;;;;10.75;2.67;;;8.30;99.90;;;;;;7341449;32;20099;-63
2022/10/07 20:22:00;;;;;;;10.43;1.98;;;8.20;99.90;;;;;;7336971;32;20137;-63
2022/10/07 20:26:09;;;;;;;9.90;2.10;;;8.20;99.90;;;;;;7341931;32;20475;-65
2022/10/07 20:30:12;;;;;;;9.77;2.40;;;8.10;99.90;;;;;;7340812;32;20501;-65
2022/10/07 20:34:18;;;;;;;;;;;8.00;99.90;;;;;;7344345;32;20118;-65
2022/10/07 20:38:20;;;;;;;7.37;2.30;;;8.10;99.90;;;;;;7344281;32;20441;-63
2022/10/07 20:42:24;;;;;;;9.98;2.62;;;8.00;99.90;;;;;;7341509;32;20801;-63
2022/10/07 20:46:26;;;;;;;13.80;3.10;;;8.00;99.90;;;;;;7342236;32;20136;-64
2022/10/07 20:50:27;;;;;;;11.88;2.83;;;7.90;99.90;;;;;;7341880;32;20115;-63
2022/10/07 20:54:30;;;;;;;10.20;2.62;;;7.90;99.90;;;;;;7338221;32;20168;-62
2022/10/07 20:58:33;;;;;;;15.10;2.60;;;7.80;99.90;;;;;;7343453;32;20207;-62
2022/10/07 21:02:35;;;;;;;9.43;2.70;;;7.80;99.90;;;;;;7340834;32;20111;-63
2022/10/07 21:06:41;;;;;;;11.73;3.65;;;7.70;99.90;;;;;;7335603;32;20133;-63
2022/10/07 21:10:42;;;;;;;14.25;2.97;;;7.70;99.90;;;;;;7337381;32;20206;-60
2022/10/07 21:14:46;;;;;;;6.03;2.83;;;7.70;99.90;;;;;;7340538;32;20123;-61
2022/10/07 21:18:49;;;;;;;9.75;3.12;;;7.70;99.90;;;;;;7335002;32;20511;-62
2022/10/07 21:22:53;;;;;;;6.87;2.80;;;7.70;99.90;;;;;;7350606;32;20115;-62
2022/10/07 21:26:54;;;;;;;9.15;2.55;;;7.70;99.90;;;;;;7346184;32;20112;-62
2022/10/07 21:30:58;;;;;;;9.48;2.47;;;7.60;99.90;;;;;;7349151;32;20560;-60
2022/10/07 21:35:00;;;;;;;10.43;2.97;;;7.60;99.90;;;;;;7348141;32;20119;-61
2022/10/07 21:39:02;;;;;;;16.10;3.10;;;7.60;99.90;;;;;;7344267;32;20178;-62
2022/10/07 21:43:04;;;;;;;8.45;2.62;;;7.60;99.90;;;;;;7349675;32;20115;-60